UIAA 200300Z 06002MPS 9999 FEW050CB 22/04 Q1005 R29/70D NOSIG RMK QFE695/0927
QNH:(hPa/inHg/mmHg)1005 / 29.68 / 754
QFE:(hPa/inHg/mmHg)921 / 27.19 / 691
Temperature22
Dew Point4
Visibility> 10000
Weather
Cloud CoverFEW (5000);
Transition Height1800 m./8200 ft.
Transition LevelFL100
SQUAWK